Vail, Washington
Current Conditions -  °F | °C
As of 2:21 AM on Friday 31 Oct 2014 (Local Time) from KOLM Reporting Station
Light Rain Light Rain  
Wind Chill: 11°   Ceiling: 5500
Heat Index: 11°   Visibility: 7mi
Dew Point: 11°   Wind: 0mph
Humidity: 97%   Direction: NA
Pressure: 29.76"   Gusts: NA
Location:  46.8214°N, 122.662°W
Report Text: KOLM 310921Z AUTO 00000KT 7SM -RA SCT005 BKN055 OVC070 11/11 A2976 RMK AO2 P0003 T01110106
Loading
Personal Weather Stations






























Interactive Weather Map
Tropical Storm Tracking
New forecast layout! Learn more

10-Day Weather Forecast

Advertisements
Track Severe Weather on mobile